Time;durP1;ratioP1;P1;durP2;ratioP2;P2;SDS_P1;SDS_P2;PMS_P1;PMS_P2;Temp;Humidity;BMP_temperature;BMP_pressure;BME280_temperature;BME280_humidity;BME280_pressure;Samples;Min_cycle;Max_cycle;Signal;HPM_P1;HPM_P2
2023/10/26 00:01:27;;;;;;;25.83;14.95;;;10.10;99.90;;;;;;4768879;30;20066;-59
2023/10/26 00:03:53;;;;;;;24.10;14.73;;;9.90;99.90;;;;;;4768866;30;20044;-60
2023/10/26 00:06:18;;;;;;;23.58;14.60;;;10.10;99.90;;;;;;4768899;30;20163;-45
2023/10/26 00:08:44;;;;;;;22.90;14.25;;;10.10;99.90;;;;;;4768909;30;20040;-47
2023/10/26 00:11:10;;;;;;;23.45;15.88;;;10.10;99.90;;;;;;4768751;30;20051;-47
2023/10/26 00:13:36;;;;;;;26.50;16.77;;;10.00;99.90;;;;;;4767580;30;20051;-48
2023/10/26 00:16:01;;;;;;;28.10;17.23;;;10.10;99.90;;;;;;4768545;30;20062;-48
2023/10/26 00:18:27;;;;;;;42.55;18.60;;;10.00;99.90;;;;;;4768659;30;20044;-45
2023/10/26 00:21:00;;;;;;;29.08;17.40;;;10.00;99.90;;;;;;4768637;30;20553;-49
2023/10/26 00:23:26;;;;;;;29.85;18.15;;;9.90;99.90;;;;;;4768404;30;20052;-46
2023/10/26 00:25:53;;;;;;;27.25;17.45;;;9.90;99.90;;;;;;4772232;30;20044;-45
2023/10/26 00:28:19;;;;;;;26.75;16.75;;;9.80;99.90;;;;;;4772150;30;20050;-47
2023/10/26 00:30:45;;;;;;;29.70;18.25;;;9.80;99.90;;;;;;4772093;30;20043;-47
2023/10/26 00:33:10;;;;;;;25.40;16.70;;;9.80;99.90;;;;;;4770521;30;20097;-46
2023/10/26 00:35:36;;;;;;;23.63;17.20;;;9.90;99.90;;;;;;4771902;30;20066;-46
2023/10/26 00:38:02;;;;;;;26.40;17.25;;;9.90;99.90;;;;;;4771761;30;20054;-45
2023/10/26 00:40:27;;;;;;;28.42;18.25;;;9.90;99.90;;;;;;4771590;30;20056;-47
2023/10/26 00:43:00;;;;;;;33.70;19.48;;;9.90;99.90;;;;;;4771453;30;20119;-46
2023/10/26 00:45:28;;;;;;;28.73;18.92;;;9.90;99.90;;;;;;4771861;30;20048;-46
2023/10/26 00:47:53;;;;;;;31.05;20.35;;;9.70;99.90;;;;;;4771710;30;20044;-49
2023/10/26 00:50:19;;;;;;;30.20;19.83;;;9.70;99.90;;;;;;4771590;30;20452;-45
2023/10/26 00:52:46;;;;;;;30.65;20.05;;;9.70;99.90;;;;;;4771617;30;20051;-45
2023/10/26 00:55:12;;;;;;;33.75;21.25;;;9.80;99.90;;;;;;4771454;30;20063;-46
2023/10/26 00:57:38;;;;;;;32.17;21.33;;;9.70;99.90;;;;;;4771225;30;20067;-46
2023/10/26 01:00:07;;;;;;;31.05;21.60;;;9.70;99.90;;;;;;4771432;30;20460;-46
2023/10/26 01:02:32;;;;;;;32.05;21.50;;;9.70;99.90;;;;;;4771238;30;20064;-45
2023/10/26 01:04:58;;;;;;;33.72;22.50;;;9.70;99.90;;;;;;4771155;30;20043;-46
2023/10/26 01:07:24;;;;;;;33.58;20.52;;;9.60;99.90;;;;;;4771215;30;20093;-46
2023/10/26 01:09:49;;;;;;;31.83;21.73;;;9.70;99.90;;;;;;4771393;30;20047;-47
2023/10/26 01:12:16;;;;;;;35.50;22.25;;;9.50;99.90;;;;;;4771353;30;20513;-47
2023/10/26 01:14:42;;;;;;;31.83;20.60;;;9.50;99.90;;;;;;4771317;30;20110;-46
2023/10/26 01:17:08;;;;;;;30.45;20.85;;;9.30;99.90;;;;;;4771013;30;20413;-46
2023/10/26 01:19:43;;;;;;;29.65;19.80;;;9.20;99.90;;;;;;4770798;30;20056;-46
2023/10/26 01:22:09;;;;;;;34.97;22.08;;;9.10;99.90;;;;;;4770881;30;20108;-46
2023/10/26 01:24:36;;;;;;;32.92;20.13;;;9.10;99.90;;;;;;4771007;30;20501;-47
2023/10/26 01:27:01;;;;;;;33.20;21.33;;;9.20;99.90;;;;;;4770878;30;20478;-46
2023/10/26 01:29:27;;;;;;;34.28;21.73;;;9.20;99.90;;;;;;4771010;30;20050;-46
2023/10/26 01:31:53;;;;;;;34.65;21.70;;;9.30;99.90;;;;;;4771116;30;20109;-50
2023/10/26 01:34:19;;;;;;;30.38;21.08;;;9.40;99.90;;;;;;4770463;30;20516;-50
2023/10/26 01:36:44;;;;;;;37.20;23.83;;;9.30;99.90;;;;;;4770658;30;20409;-47
2023/10/26 01:39:11;;;;;;;35.97;22.73;;;9.20;99.90;;;;;;4770905;30;20056;-48
2023/10/26 01:41:37;;;;;;;34.60;23.75;;;9.30;99.90;;;;;;4770862;30;20516;-45
2023/10/26 01:44:03;;;;;;;34.92;22.67;;;9.40;99.90;;;;;;4770837;30;20122;-48
2023/10/26 01:46:29;;;;;;;36.70;22.65;;;9.20;99.90;;;;;;4769547;30;20048;-50
2023/10/26 01:48:54;;;;;;;38.55;22.65;;;9.30;99.90;;;;;;4770714;30;20050;-46
2023/10/26 01:51:20;;;;;;;36.33;22.60;;;9.10;99.90;;;;;;4771041;30;20097;-59
2023/10/26 01:53:46;;;;;;;36.05;22.95;;;9.10;99.90;;;;;;4770603;30;20052;-59
2023/10/26 01:56:12;;;;;;;33.10;21.65;;;9.10;99.90;;;;;;4770758;30;20048;-59
2023/10/26 01:58:37;;;;;;;35.17;22.88;;;9.00;99.90;;;;;;4770375;30;20524;-59
2023/10/26 02:01:03;;;;;;;36.50;23.13;;;8.90;99.90;;;;;;4770087;30;20070;-59
2023/10/26 02:03:29;;;;;;;34.90;23.15;;;8.90;99.90;;;;;;4770222;30;20047;-59
2023/10/26 02:05:55;;;;;;;35.88;23.00;;;9.00;99.90;;;;;;4770142;30;20055;-60
2023/10/26 02:08:20;;;;;;;53.72;22.95;;;8.90;99.90;;;;;;4770336;30;20046;-60
2023/10/26 02:10:46;;;;;;;53.45;21.92;;;8.80;99.90;;;;;;4770210;30;20515;-59
2023/10/26 02:13:11;;;;;;;36.30;22.27;;;8.70;99.90;;;;;;4770374;30;20596;-60
2023/10/26 02:15:37;;;;;;;39.42;22.52;;;8.70;99.90;;;;;;4769048;30;20130;-59
2023/10/26 02:18:03;;;;;;;39.45;22.85;;;8.60;99.90;;;;;;4770285;30;20052;-60
2023/10/26 02:20:28;;;;;;;40.33;24.25;;;8.60;99.90;;;;;;4770149;30;20048;-59
2023/10/26 02:22:54;;;;;;;37.55;23.40;;;8.50;99.90;;;;;;4770167;30;20123;-59
2023/10/26 02:25:20;;;;;;;35.08;23.52;;;8.40;99.90;;;;;;4770110;30;20048;-59
2023/10/26 02:27:46;;;;;;;35.45;22.95;;;8.60;99.90;;;;;;4769943;30;20097;-59
2023/10/26 02:30:12;;;;;;;37.00;23.90;;;8.60;99.90;;;;;;4769874;30;20530;-59
2023/10/26 02:32:38;;;;;;;36.30;23.90;;;8.90;99.90;;;;;;4769774;30;20051;-58
2023/10/26 02:35:04;;;;;;;40.05;24.40;;;8.70;99.90;;;;;;4770014;30;20079;-59
2023/10/26 02:37:32;;;;;;;37.25;24.38;;;9.00;99.90;;;;;;4769746;30;20505;-60
2023/10/26 02:39:58;;;;;;;39.53;26.45;;;8.90;99.90;;;;;;4769467;30;20052;-60
2023/10/26 02:42:24;;;;;;;40.08;26.45;;;8.90;99.90;;;;;;4769892;30;20048;-59
2023/10/26 02:44:50;;;;;;;40.38;26.10;;;9.00;99.90;;;;;;4769589;30;20048;-59
2023/10/26 02:47:15;;;;;;;44.45;24.60;;;8.90;99.90;;;;;;4769045;30;20044;-59
2023/10/26 02:49:41;;;;;;;41.85;26.30;;;8.90;99.90;;;;;;4769558;30;20043;-59
2023/10/26 02:52:07;;;;;;;43.25;27.40;;;8.90;99.90;;;;;;4769583;30;20059;-60
2023/10/26 02:54:32;;;;;;;41.13;25.85;;;9.00;99.90;;;;;;4769643;30;20165;-59
2023/10/26 02:56:58;;;;;;;42.58;25.83;;;8.90;99.90;;;;;;4769216;30;20130;-60
2023/10/26 02:59:24;;;;;;;36.53;24.35;;;9.00;99.90;;;;;;4769267;30;20071;-59
2023/10/26 03:01:49;;;;;;;41.30;25.98;;;9.00;99.90;;;;;;4769309;30;20448;-59
2023/10/26 03:04:15;;;;;;;38.55;26.35;;;9.20;99.90;;;;;;4769180;30;20745;-59
2023/10/26 03:06:41;;;;;;;40.10;26.77;;;9.20;99.90;;;;;;4769345;30;20048;-59
2023/10/26 03:09:10;;;;;;;44.65;25.88;;;9.10;99.90;;;;;;4769384;30;20118;-60
2023/10/26 03:11:36;;;;;;;43.92;27.05;;;9.10;99.90;;;;;;4769206;30;20082;-59
2023/10/26 03:14:03;;;;;;;40.78;25.65;;;9.10;99.90;;;;;;4769390;30;20047;-59
2023/10/26 03:16:29;;;;;;;45.67;25.83;;;9.20;99.90;;;;;;4769326;30;20401;-59
2023/10/26 03:18:55;;;;;;;44.35;26.13;;;9.10;99.90;;;;;;4769357;30;20048;-60
2023/10/26 03:21:20;;;;;;;42.30;25.92;;;9.10;99.90;;;;;;4769086;30;20536;-60
2023/10/26 03:23:52;;;;;;;41.55;26.98;;;9.10;99.90;;;;;;4769281;30;20465;-60
2023/10/26 03:26:21;;;;;;;41.05;25.80;;;9.30;99.90;;;;;;4769164;30;20048;-59
2023/10/26 03:28:50;;;;;;;41.38;25.85;;;9.30;99.90;;;;;;4768969;30;20539;-60
2023/10/26 03:31:16;;;;;;;41.45;25.83;;;9.20;99.90;;;;;;4769003;30;20079;-60
2023/10/26 03:33:42;;;;;;;45.22;28.90;;;9.20;99.90;;;;;;4769187;30;20050;-60
2023/10/26 03:36:15;;;;;;;44.97;27.55;;;9.40;99.90;;;;;;4769079;30;20048;-60
2023/10/26 03:38:42;;;;;;;46.42;26.85;;;9.30;99.90;;;;;;4768806;30;20513;-60
2023/10/26 03:41:08;;;;;;;43.78;27.00;;;9.40;99.90;;;;;;4768891;30;20401;-60
2023/10/26 03:43:34;;;;;;;42.67;26.05;;;9.30;99.90;;;;;;4767462;30;20124;-59
2023/10/26 03:46:00;;;;;;;42.45;27.63;;;9.20;99.90;;;;;;4769154;30;20044;-60
2023/10/26 03:48:25;;;;;;;42.53;26.90;;;9.30;99.90;;;;;;4768701;30;20082;-59
2023/10/26 03:50:51;;;;;;;44.30;27.58;;;9.20;99.90;;;;;;4767427;30;20043;-60
2023/10/26 03:53:17;;;;;;;42.90;26.25;;;9.30;99.90;;;;;;4768905;30;20048;-59
2023/10/26 03:55:42;;;;;;;40.13;25.55;;;9.20;99.90;;;;;;4768807;30;20097;-60
2023/10/26 03:58:10;;;;;;;41.28;25.15;;;9.10;99.90;;;;;;4770839;30;20150;-59
2023/10/26 04:00:36;;;;;;;40.35;25.10;;;8.90;99.90;;;;;;4772507;30;20055;-60
2023/10/26 04:03:02;;;;;;;42.70;26.83;;;8.90;99.90;;;;;;4772392;30;20489;-60
2023/10/26 04:05:28;;;;;;;41.10;24.42;;;8.90;99.90;;;;;;4772271;30;20051;-59
2023/10/26 04:07:56;;;;;;;39.65;24.77;;;8.90;99.90;;;;;;4772284;30;20105;-59
2023/10/26 04:10:22;;;;;;;72.43;26.02;;;8.80;99.90;;;;;;4772171;30;20497;-60
2023/10/26 04:12:48;;;;;;;136.23;24.52;;;8.80;99.90;;;;;;4772098;30;20593;-59
2023/10/26 04:15:13;;;;;;;102.50;25.58;;;8.70;99.90;;;;;;4772346;30;20067;-59
2023/10/26 04:17:39;;;;;;;35.88;22.60;;;8.80;99.90;;;;;;4771973;30;20054;-59
2023/10/26 04:20:07;;;;;;;32.00;21.92;;;8.70;99.90;;;;;;4772265;30;20096;-59
2023/10/26 04:22:33;;;;;;;166.30;24.42;;;8.80;99.90;;;;;;4772066;30;20406;-59
2023/10/26 04:24:59;;;;;;;196.50;24.88;;;8.80;99.90;;;;;;4772176;30;20043;-59
2023/10/26 04:27:25;;;;;;;170.55;27.20;;;8.60;99.90;;;;;;4772063;30;20048;-59
2023/10/26 04:29:51;;;;;;;52.38;23.58;;;8.50;99.90;;;;;;4771978;30;20554;-59
2023/10/26 04:32:17;;;;;;;54.15;21.95;;;8.40;99.90;;;;;;4771938;30;20512;-60
2023/10/26 04:34:44;;;;;;;59.78;21.92;;;8.60;99.90;;;;;;4770594;30;20078;-59
2023/10/26 04:37:12;;;;;;;139.20;23.05;;;8.50;99.90;;;;;;4770481;30;20059;-59
2023/10/26 04:39:41;;;;;;;183.98;23.42;;;8.50;99.90;;;;;;4771936;30;20050;-59
2023/10/26 04:42:07;;;;;;;204.70;24.15;;;8.40;99.90;;;;;;4771471;30;20727;-59
2023/10/26 04:44:33;;;;;;;155.95;21.67;;;8.40;99.90;;;;;;4771531;30;20126;-60
2023/10/26 04:46:59;;;;;;;159.63;23.20;;;8.30;99.90;;;;;;4785082;30;20124;-59
2023/10/26 04:49:24;;;;;;;49.10;20.52;;;8.30;99.90;;;;;;4771706;30;20071;-60
2023/10/26 04:51:50;;;;;;;37.08;19.67;;;8.40;99.90;;;;;;4771666;30;20279;-60
2023/10/26 04:54:15;;;;;;;34.95;18.13;;;8.50;99.90;;;;;;4755761;30;20070;-60
2023/10/26 04:56:42;;;;;;;37.70;19.08;;;8.50;99.90;;;;;;4771210;30;20485;-60
2023/10/26 04:59:07;;;;;;;29.15;19.38;;;8.60;99.90;;;;;;4771220;30;20101;-59
2023/10/26 05:01:33;;;;;;;30.23;19.02;;;8.60;99.90;;;;;;4771522;30;20051;-59
2023/10/26 05:03:59;;;;;;;28.15;18.83;;;8.70;99.90;;;;;;4771447;30;20119;-59
2023/10/26 05:06:24;;;;;;;28.38;18.60;;;8.70;99.90;;;;;;4771539;30;20048;-59
2023/10/26 05:08:50;;;;;;;30.88;19.90;;;8.70;99.90;;;;;;4770532;30;20040;-59
2023/10/26 05:11:16;;;;;;;36.05;21.15;;;8.80;99.90;;;;;;4769998;30;20083;-59
2023/10/26 05:13:42;;;;;;;38.05;22.45;;;8.90;99.90;;;;;;4770983;30;20039;-59
2023/10/26 05:16:07;;;;;;;35.50;21.58;;;8.80;99.90;;;;;;4771034;30;20126;-58
2023/10/26 05:18:33;;;;;;;40.30;21.27;;;8.90;99.90;;;;;;4770429;30;20051;-59
2023/10/26 05:20:59;;;;;;;37.47;21.27;;;8.90;99.90;;;;;;4767833;30;20055;-59
2023/10/26 05:23:25;;;;;;;49.03;22.98;;;8.80;99.90;;;;;;4768614;30;20079;-59
2023/10/26 05:25:51;;;;;;;40.25;22.05;;;8.90;99.90;;;;;;4769125;30;20044;-59
2023/10/26 05:28:17;;;;;;;42.10;20.88;;;8.90;99.90;;;;;;4769040;30;20040;-59
2023/10/26 05:30:43;;;;;;;38.25;21.10;;;8.80;99.90;;;;;;4767980;30;20066;-59
2023/10/26 05:33:08;;;;;;;85.63;21.85;;;8.90;99.90;;;;;;4769254;30;20054;-59
2023/10/26 05:35:35;;;;;;;51.33;21.10;;;8.80;99.90;;;;;;4767814;30;20074;-59
2023/10/26 05:38:01;;;;;;;69.60;21.02;;;8.90;99.90;;;;;;4769153;30;20156;-59
2023/10/26 05:40:26;;;;;;;58.15;21.25;;;8.70;99.90;;;;;;4769084;30;20098;-59
2023/10/26 05:42:52;;;;;;;35.05;19.75;;;8.70;99.90;;;;;;4769287;30;20046;-59
2023/10/26 05:45:18;;;;;;;38.00;20.30;;;8.70;99.90;;;;;;4769432;30;20055;-59
2023/10/26 05:47:43;;;;;;;43.15;18.48;;;8.80;99.90;;;;;;4769275;30;20052;-59
2023/10/26 05:50:10;;;;;;;32.95;18.90;;;8.80;99.90;;;;;;4769208;30;20131;-58
2023/10/26 05:52:36;;;;;;;26.42;17.73;;;8.60;99.90;;;;;;4769020;30;20048;-59
2023/10/26 05:55:02;;;;;;;32.78;18.63;;;8.60;99.90;;;;;;4767480;30;20040;-59
2023/10/26 05:57:28;;;;;;;30.23;19.38;;;8.80;99.90;;;;;;4768964;30;20123;-59
2023/10/26 05:59:54;;;;;;;26.83;17.02;;;8.70;99.90;;;;;;4769054;30;20515;-59
2023/10/26 06:02:20;;;;;;;32.15;19.10;;;8.70;99.90;;;;;;4768794;30;20059;-58
2023/10/26 06:04:45;;;;;;;27.73;18.92;;;8.80;99.90;;;;;;4767525;30;20095;-58
2023/10/26 06:07:11;;;;;;;28.20;14.45;;;8.70;99.90;;;;;;4768783;30;20127;-59
2023/10/26 06:09:36;;;;;;;21.65;14.25;;;8.60;99.90;;;;;;4768709;30;20097;-59
2023/10/26 06:12:02;;;;;;;29.02;15.15;;;8.40;99.90;;;;;;4768414;30;20097;-59
2023/10/26 06:14:28;;;;;;;48.90;14.40;;;8.50;99.90;;;;;;4768272;30;20118;-57
2023/10/26 06:16:53;;;;;;;38.15;14.38;;;8.40;99.90;;;;;;4768317;30;20127;-59
2023/10/26 06:19:19;;;;;;;70.05;15.50;;;8.40;99.90;;;;;;4773310;30;20454;-59
2023/10/26 06:21:45;;;;;;;58.50;13.50;;;8.20;99.90;;;;;;4785380;29;20059;-59
2023/10/26 06:24:10;;;;;;;41.15;13.05;;;8.20;99.90;;;;;;4773218;29;20044;-59
2023/10/26 06:26:36;;;;;;;74.13;14.73;;;8.20;99.90;;;;;;4768809;30;20512;-59
2023/10/26 06:29:02;;;;;;;57.75;13.18;;;8.20;99.90;;;;;;4768273;30;20048;-60
2023/10/26 06:31:28;;;;;;;71.55;13.73;;;8.10;99.90;;;;;;4768152;30;20060;-60
2023/10/26 06:33:53;;;;;;;54.78;12.07;;;8.10;99.90;;;;;;4768263;30;20083;-60
2023/10/26 06:36:19;;;;;;;58.80;15.88;;;8.10;99.90;;;;;;4768395;30;20047;-60
2023/10/26 06:38:44;;;;;;;58.65;14.35;;;8.20;99.90;;;;;;4768241;30;20138;-60
2023/10/26 06:41:10;;;;;;;37.63;14.07;;;8.10;99.90;;;;;;4767709;30;20450;-60
2023/10/26 06:43:37;;;;;;;23.20;11.57;;;8.10;99.90;;;;;;4767908;30;20044;-60
2023/10/26 06:46:03;;;;;;;32.05;18.70;;;8.20;99.90;;;;;;4768151;30;20056;-60
2023/10/26 06:48:29;;;;;;;40.75;22.13;;;8.20;99.90;;;;;;4767049;30;20040;-60
2023/10/26 06:50:59;;;;;;;57.10;22.20;;;8.30;99.90;;;;;;4774214;30;20497;-60
2023/10/26 06:53:25;;;;;;;31.90;18.88;;;8.40;99.90;;;;;;4786133;29;20088;-60
2023/10/26 06:55:52;;;;;;;32.25;20.90;;;8.50;99.90;;;;;;4785801;29;20476;-60
2023/10/26 06:58:18;;;;;;;35.67;22.70;;;8.60;99.90;;;;;;4785832;29;20059;-60
2023/10/26 07:00:44;;;;;;;35.95;19.30;;;8.50;99.90;;;;;;4786251;29;20122;-60
2023/10/26 07:03:10;;;;;;;28.70;18.55;;;8.60;99.90;;;;;;4779873;29;20193;-60
2023/10/26 07:05:36;;;;;;;30.92;21.02;;;8.60;99.90;;;;;;4767927;30;20043;-60
2023/10/26 07:08:01;;;;;;;40.42;24.55;;;8.50;99.90;;;;;;4767816;30;20521;-59
2023/10/26 07:10:27;;;;;;;43.90;29.48;;;8.70;99.90;;;;;;4767327;30;20048;-60
2023/10/26 07:12:53;;;;;;;41.33;27.35;;;8.70;99.90;;;;;;4767992;30;20048;-60
2023/10/26 07:15:19;;;;;;;40.40;25.10;;;8.70;99.90;;;;;;4767905;30;20071;-60
2023/10/26 07:17:44;;;;;;;38.67;24.88;;;8.80;99.90;;;;;;4767904;30;20079;-60
2023/10/26 07:20:12;;;;;;;39.72;25.95;;;8.70;99.90;;;;;;4766145;30;20051;-59
2023/10/26 07:22:40;;;;;;;34.60;23.08;;;8.90;99.90;;;;;;4767601;30;20489;-60
2023/10/26 07:25:06;;;;;;;36.75;23.60;;;8.90;99.90;;;;;;4767587;30;20476;-60
2023/10/26 07:27:32;;;;;;;37.55;23.77;;;8.80;99.90;;;;;;4767884;30;20048;-59
2023/10/26 07:30:01;;;;;;;35.85;22.38;;;8.80;99.90;;;;;;4767783;30;20087;-60
2023/10/26 07:32:27;;;;;;;40.03;21.48;;;8.80;99.90;;;;;;4767369;30;20397;-60
2023/10/26 07:34:54;;;;;;;35.25;21.80;;;8.90;99.90;;;;;;4769556;30;20047;-60
2023/10/26 07:37:19;;;;;;;35.70;21.55;;;8.80;99.90;;;;;;4785412;29;20092;-60
2023/10/26 07:39:45;;;;;;;33.60;20.13;;;8.90;99.90;;;;;;4785319;29;20369;-60
2023/10/26 07:42:11;;;;;;;36.78;21.30;;;9.00;99.90;;;;;;4785522;29;20039;-60
2023/10/26 07:44:37;;;;;;;34.50;21.67;;;9.00;99.90;;;;;;4785405;29;20051;-60
2023/10/26 07:47:04;;;;;;;37.92;21.13;;;9.00;99.90;;;;;;4785599;29;20449;-60
2023/10/26 07:49:30;;;;;;;36.08;20.73;;;9.00;99.90;;;;;;4785249;29;20081;-59
2023/10/26 07:51:55;;;;;;;35.10;20.65;;;9.10;99.90;;;;;;4785220;29;20500;-59
2023/10/26 07:54:21;;;;;;;35.28;20.63;;;9.20;99.90;;;;;;4783677;29;20081;-59
2023/10/26 07:56:47;;;;;;;38.13;21.73;;;9.00;99.90;;;;;;4785425;29;20043;-59
2023/10/26 07:59:13;;;;;;;37.40;21.27;;;9.10;99.90;;;;;;4785126;29;20059;-59
2023/10/26 08:01:38;;;;;;;35.40;21.75;;;9.20;99.90;;;;;;4785309;29;20074;-60
2023/10/26 08:04:04;;;;;;;39.15;22.55;;;9.30;99.90;;;;;;4772636;29;20055;-60
2023/10/26 08:06:30;;;;;;;39.83;21.85;;;9.40;99.90;;;;;;4767216;30;20379;-60
2023/10/26 08:08:58;;;;;;;37.47;22.17;;;9.40;99.90;;;;;;4767524;30;20079;-60
2023/10/26 08:11:23;;;;;;;40.38;21.80;;;9.40;99.90;;;;;;4767427;30;20424;-60
2023/10/26 08:13:50;;;;;;;40.28;22.40;;;9.50;99.90;;;;;;4767187;30;20196;-60
2023/10/26 08:16:16;;;;;;;41.85;22.77;;;9.60;99.90;;;;;;4767078;30;20064;-60
2023/10/26 08:18:42;;;;;;;39.45;23.50;;;9.60;99.90;;;;;;4766130;30;20048;-59
2023/10/26 08:21:08;;;;;;;47.10;24.08;;;9.50;99.90;;;;;;4767052;30;20051;-60
2023/10/26 08:23:34;;;;;;;42.60;23.45;;;9.50;99.90;;;;;;4767620;30;20103;-60
2023/10/26 08:26:10;;;;;;;39.95;22.23;;;9.60;99.90;;;;;;4768188;30;20082;-59
2023/10/26 08:28:36;;;;;;;36.75;22.65;;;9.50;99.90;;;;;;4768196;30;20040;-60
2023/10/26 08:31:02;;;;;;;38.38;21.58;;;9.70;99.90;;;;;;4767957;30;20047;-59
2023/10/26 08:33:33;;;;;;;37.28;22.50;;;9.60;99.90;;;;;;4767312;30;20058;-59
2023/10/26 08:35:59;;;;;;;38.80;22.00;;;9.60;99.90;;;;;;4768338;30;20108;-59
2023/10/26 08:38:25;;;;;;;35.72;20.35;;;9.60;99.90;;;;;;4768665;30;20417;-59
2023/10/26 08:40:52;;;;;;;39.38;21.83;;;9.70;99.90;;;;;;4768145;30;20497;-59
2023/10/26 08:43:19;;;;;;;37.50;21.02;;;9.70;99.90;;;;;;4767906;30;20370;-60
2023/10/26 08:45:46;;;;;;;38.55;20.60;;;9.70;99.90;;;;;;4770389;30;20044;-60
2023/10/26 08:48:16;;;;;;;36.25;21.60;;;9.70;99.90;;;;;;4770592;30;20072;-59
2023/10/26 08:50:42;;;;;;;36.15;20.60;;;9.70;99.90;;;;;;4771406;30;20130;-59
2023/10/26 08:53:08;;;;;;;37.53;21.67;;;9.80;99.90;;;;;;4771437;30;20130;-58
2023/10/26 08:55:37;;;;;;;35.92;20.15;;;9.80;99.90;;;;;;4770044;30;20504;-60
2023/10/26 08:58:03;;;;;;;35.97;19.90;;;9.80;99.90;;;;;;4771258;30;20066;-59
2023/10/26 09:00:32;;;;;;;35.97;21.27;;;9.90;99.90;;;;;;4771232;30;20595;-60
2023/10/26 09:02:58;;;;;;;37.65;21.27;;;9.80;99.90;;;;;;4771750;30;20048;-60
2023/10/26 09:05:24;;;;;;;36.85;21.67;;;9.90;99.90;;;;;;4771420;30;20108;-59
2023/10/26 09:07:53;;;;;;;37.92;22.50;;;9.80;99.90;;;;;;4771563;30;20050;-60
2023/10/26 09:10:32;;;;;;;41.38;22.30;;;9.90;99.90;;;;;;4771190;30;20047;-60
2023/10/26 09:13:03;;;;;;;37.75;23.10;;;9.90;99.90;;;;;;4771425;30;20051;-60
2023/10/26 09:15:29;;;;;;;40.58;23.98;;;9.90;99.90;;;;;;4771189;30;20051;-60
2023/10/26 09:18:00;;;;;;;44.63;25.50;;;10.00;99.90;;;;;;4771192;30;20048;-58
2023/10/26 09:20:26;;;;;;;40.88;24.45;;;9.90;99.90;;;;;;4770915;30;20135;-60
2023/10/26 09:22:52;;;;;;;45.88;25.88;;;9.90;99.90;;;;;;4784788;30;20157;-60
2023/10/26 09:25:18;;;;;;;46.30;25.50;;;9.90;99.90;;;;;;4771116;30;20075;-60
2023/10/26 09:27:45;;;;;;;43.83;25.73;;;9.90;99.90;;;;;;4770975;30;20040;-60
2023/10/26 09:30:31;;;;;;;44.80;25.98;;;10.00;99.90;;;;;;4769365;30;20486;-59
2023/10/26 09:32:58;;;;;;;44.33;25.85;;;9.90;99.90;;;;;;4770832;30;20055;-60
2023/10/26 09:35:31;;;;;;;45.60;26.30;;;9.90;99.90;;;;;;4770744;30;20079;-60
2023/10/26 09:37:57;;;;;;;47.58;26.17;;;10.00;99.90;;;;;;4770659;30;20055;-60
2023/10/26 09:40:24;;;;;;;47.20;25.45;;;10.00;99.90;;;;;;4770665;30;20119;-60
2023/10/26 09:42:50;;;;;;;38.60;23.70;;;9.90;99.90;;;;;;4770525;30;20082;-59
2023/10/26 09:45:19;;;;;;;39.45;23.83;;;9.80;99.90;;;;;;4770873;30;20112;-60
2023/10/26 09:47:46;;;;;;;40.85;23.67;;;9.90;99.90;;;;;;4770472;30;20043;-59
2023/10/26 09:50:13;;;;;;;38.67;22.40;;;10.00;99.90;;;;;;4770854;30;20401;-59
2023/10/26 09:52:41;;;;;;;37.28;22.40;;;9.90;99.90;;;;;;4770686;30;20394;-59
2023/10/26 09:55:10;;;;;;;35.78;22.33;;;9.90;99.90;;;;;;4770143;30;20052;-60
2023/10/26 09:58:01;;;;;;;35.13;21.83;;;9.90;99.90;;;;;;4770161;30;20059;-60
2023/10/26 10:00:31;;;;;;;32.92;20.30;;;9.90;99.90;;;;;;4770410;30;20131;-60
2023/10/26 10:03:10;;;;;;;34.22;20.42;;;9.90;99.90;;;;;;4767863;30;20051;-60
2023/10/26 10:05:40;;;;;;;33.75;21.55;;;9.90;99.90;;;;;;4768643;30;20051;-59
2023/10/26 10:08:06;;;;;;;35.05;21.50;;;10.00;99.90;;;;;;4768683;30;20050;-59
2023/10/26 10:10:33;;;;;;;34.00;20.13;;;10.00;99.90;;;;;;4768050;30;20055;-59
2023/10/26 10:12:59;;;;;;;36.15;21.02;;;10.10;99.90;;;;;;4768719;30;20257;-60
2023/10/26 10:15:39;;;;;;;35.38;22.42;;;10.20;99.90;;;;;;4768749;30;20602;-60
2023/10/26 10:18:08;;;;;;;36.30;21.63;;;10.20;99.90;;;;;;4767257;30;20093;-59
2023/10/26 10:20:35;;;;;;;35.85;22.45;;;10.20;99.90;;;;;;4768830;30;20133;-59
2023/10/26 10:23:02;;;;;;;38.40;22.45;;;10.20;99.90;;;;;;4768482;30;20507;-60
2023/10/26 10:25:50;;;;;;;35.45;21.20;;;10.10;99.90;;;;;;4767739;30;20043;-61
2023/10/26 10:28:16;;;;;;;35.80;22.80;;;10.30;99.90;;;;;;4749393;30;20079;-59
2023/10/26 10:30:50;;;;;;;35.42;21.38;;;10.30;99.90;;;;;;4766808;30;20059;-60
2023/10/26 10:33:22;;;;;;;35.33;21.75;;;10.30;99.90;;;;;;4767543;30;20073;-60
2023/10/26 10:36:08;;;;;;;37.65;22.50;;;10.40;99.90;;;;;;4768796;30;20044;-60
2023/10/26 10:38:34;;;;;;;33.63;21.77;;;10.40;99.90;;;;;;4768850;30;20043;-60
2023/10/26 10:40:59;;;;;;;37.92;23.27;;;10.40;99.90;;;;;;4769167;30;20505;-60
2023/10/26 10:43:43;;;;;;;37.42;22.15;;;10.50;99.90;;;;;;4768534;30;20102;-60
2023/10/26 10:46:20;;;;;;;36.97;22.65;;;10.60;99.90;;;;;;4768068;30;20405;-59
2023/10/26 10:48:57;;;;;;;37.63;23.35;;;10.60;99.90;;;;;;4767249;30;20068;-59
2023/10/26 10:51:29;;;;;;;37.78;22.15;;;10.60;99.90;;;;;;4769237;30;20052;-60
2023/10/26 10:53:56;;;;;;;37.92;22.98;;;10.60;99.90;;;;;;4769047;30;20094;-60
2023/10/26 10:56:23;;;;;;;35.47;23.25;;;10.70;99.90;;;;;;4769164;30;20051;-60
2023/10/26 10:58:51;;;;;;;32.13;21.38;;;10.70;99.90;;;;;;4768817;30;20070;-59
2023/10/26 11:01:20;;;;;;;37.45;22.63;;;10.50;99.90;;;;;;4768839;30;20055;-60
2023/10/26 11:03:47;;;;;;;36.05;21.38;;;10.50;99.90;;;;;;4768651;30;20047;-60
2023/10/26 11:06:17;;;;;;;37.35;22.83;;;10.60;99.90;;;;;;4768903;30;20056;-60
2023/10/26 11:08:43;;;;;;;33.63;21.17;;;10.70;99.90;;;;;;4769255;30;20080;-60
2023/10/26 11:11:26;;;;;;;35.67;22.02;;;10.60;99.90;;;;;;4768933;30;20434;-60
2023/10/26 11:14:05;;;;;;;36.45;22.60;;;10.70;99.90;;;;;;4768825;30;20463;-60
2023/10/26 11:16:31;;;;;;;36.00;21.55;;;10.70;99.90;;;;;;4769052;30;20056;-60
2023/10/26 11:18:57;;;;;;;39.33;23.10;;;10.70;99.90;;;;;;4768426;30;20421;-59
2023/10/26 11:21:22;;;;;;;37.90;22.30;;;10.70;99.90;;;;;;4768717;30;20437;-60
2023/10/26 11:23:51;;;;;;;37.63;23.88;;;10.60;99.90;;;;;;4768551;30;20058;-59
2023/10/26 11:26:17;;;;;;;33.33;21.70;;;10.70;99.90;;;;;;4767998;30;20047;-59
2023/10/26 11:28:43;;;;;;;38.53;23.02;;;10.70;99.90;;;;;;4768353;30;20047;-61
2023/10/26 11:31:08;;;;;;;38.08;23.48;;;10.70;99.90;;;;;;4769147;30;20047;-59
2023/10/26 11:33:45;;;;;;;36.10;22.67;;;10.80;99.90;;;;;;4768879;30;20512;-59
2023/10/26 11:36:12;;;;;;;38.75;24.17;;;10.70;99.90;;;;;;4767880;30;20489;-59
2023/10/26 11:38:51;;;;;;;41.10;23.70;;;10.80;99.90;;;;;;4769300;30;20051;-60
2023/10/26 11:41:28;;;;;;;43.88;23.73;;;10.80;99.90;;;;;;4768818;30;20059;-60
2023/10/26 11:43:54;;;;;;;37.65;23.60;;;10.80;99.90;;;;;;4768545;30;20055;-59
2023/10/26 11:46:55;;;;;;;38.38;24.23;;;10.70;99.90;;;;;;4768720;30;20190;-60
2023/10/26 11:49:35;;;;;;;39.03;23.05;;;10.80;99.90;;;;;;4771239;30;20109;-60
2023/10/26 11:52:01;;;;;;;34.90;21.83;;;10.90;99.90;;;;;;4769011;30;20068;-60
2023/10/26 11:54:26;;;;;;;37.58;22.73;;;10.90;99.90;;;;;;4768977;30;20043;-60
2023/10/26 11:56:52;;;;;;;39.78;23.75;;;10.90;99.90;;;;;;4768241;30;20493;-60
2023/10/26 11:59:18;;;;;;;38.15;23.48;;;11.00;99.90;;;;;;4767831;30;20058;-60
2023/10/26 12:01:43;;;;;;;38.50;24.63;;;11.00;99.90;;;;;;4768145;30;20505;-59
2023/10/26 12:04:12;;;;;;;37.33;23.13;;;11.10;99.90;;;;;;4762348;30;20441;-60
2023/10/26 12:06:38;;;;;;;34.80;21.92;;;11.10;99.90;;;;;;4759862;30;20036;-60
2023/10/26 12:09:06;;;;;;;36.72;23.30;;;11.10;99.90;;;;;;4763008;30;20055;-60
2023/10/26 12:11:32;;;;;;;37.58;22.35;;;11.10;99.90;;;;;;4768334;30;20498;-60
2023/10/26 12:13:58;;;;;;;33.10;21.33;;;11.10;99.90;;;;;;4766098;30;20044;-60
2023/10/26 12:16:24;;;;;;;36.05;21.75;;;11.20;99.90;;;;;;4768265;30;20046;-60
2023/10/26 12:18:51;;;;;;;38.38;22.52;;;11.10;99.90;;;;;;4769972;30;20082;-60
2023/10/26 12:21:17;;;;;;;36.90;23.50;;;11.20;99.90;;;;;;4770474;30;20052;-60
2023/10/26 12:23:42;;;;;;;40.00;24.27;;;11.10;99.90;;;;;;4771623;30;20046;-60
2023/10/26 12:26:08;;;;;;;39.88;24.80;;;11.20;99.90;;;;;;4771395;30;20512;-60
2023/10/26 12:28:34;;;;;;;39.08;23.95;;;11.20;99.90;;;;;;4771535;30;20511;-60
2023/10/26 12:30:59;;;;;;;40.83;24.67;;;11.20;99.90;;;;;;4771745;30;20139;-60
2023/10/26 12:33:27;;;;;;;40.90;24.17;;;11.20;99.90;;;;;;4771404;30;20629;-60